createdAt,value
2018-11-23T00:04:25.842Z,100318.27
2018-11-23T00:09:44.316Z,100313.08
2018-11-23T00:15:02.852Z,100319.13
2018-11-23T00:20:22.648Z,100315.20
2018-11-23T00:25:42.185Z,100320.42
2018-11-23T00:30:59.729Z,100322.77
2018-11-23T00:36:18.192Z,100320.42
2018-11-23T00:41:36.987Z,100318.81
2018-11-23T00:46:55.535Z,100320.41
2018-11-23T00:52:14.064Z,100322.72
2018-11-23T00:57:32.640Z,100322.16
2018-11-23T01:02:51.268Z,100324.53
2018-11-23T01:08:09.816Z,100317.97
2018-11-23T01:13:28.337Z,100327.23
2018-11-23T01:18:46.904Z,100327.50
2018-11-23T01:24:05.520Z,100329.44
2018-11-23T01:29:24.009Z,100331.13
2018-11-23T01:34:42.543Z,100331.69
2018-11-23T01:40:01.071Z,100329.81
2018-11-23T01:45:19.593Z,100333.98
2018-11-23T01:50:38.196Z,100327.86
2018-11-23T01:55:56.774Z,100328.06
2018-11-23T02:01:15.298Z,100330.94
2018-11-23T02:06:33.794Z,100331.26
2018-11-23T02:11:52.378Z,100333.94
2018-11-23T02:17:10.995Z,100333.06
2018-11-23T02:22:29.545Z,100349.94
2018-11-23T02:27:48.003Z,100346.22
2018-11-23T02:33:06.561Z,100346.55
2018-11-23T02:38:25.077Z,100341.75
2018-11-23T02:43:43.672Z,100347.80
2018-11-23T02:49:02.167Z,100340.48
2018-11-23T02:54:20.950Z,100346.91
2018-11-23T02:59:39.517Z,100342.20
2018-11-23T03:04:58.007Z,100334.63
2018-11-23T03:10:17.155Z,100335.94
2018-11-23T03:15:35.610Z,100333.58
2018-11-23T03:20:54.149Z,100326.47
2018-11-23T03:26:12.636Z,100320.94
2018-11-23T03:31:31.219Z,100314.34
2018-11-23T03:36:49.749Z,100312.20
2018-11-23T03:42:08.364Z,100306.88
2018-11-23T03:47:26.890Z,100313.07
2018-11-23T03:52:45.660Z,100309.73
2018-11-23T03:58:04.169Z,100312.59
2018-11-23T04:03:22.663Z,100301.05
2018-11-23T04:08:41.269Z,100302.02
2018-11-23T04:13:59.763Z,100291.30
2018-11-23T04:19:18.274Z,100300.39
2018-11-23T04:24:36.759Z,100302.05
2018-11-23T04:29:55.255Z,100293.91
2018-11-23T04:35:15.089Z,100291.52
2018-11-23T04:40:33.582Z,100285.21
2018-11-23T04:45:52.279Z,100284.99
2018-11-23T04:51:10.872Z,100278.69
2018-11-23T04:56:29.416Z,100290.43
2018-11-23T05:01:47.955Z,100286.91
2018-11-23T05:07:06.455Z,100283.91
2018-11-23T05:12:24.962Z,100286.66
2018-11-23T05:17:43.696Z,100283.97
2018-11-23T05:23:02.197Z,100272.35
2018-11-23T05:28:20.788Z,100269.97
2018-11-23T05:33:39.343Z,100278.65
2018-11-23T05:38:57.839Z,100270.33
2018-11-23T05:44:16.352Z,100264.17
2018-11-23T05:49:34.839Z,100259.89
2018-11-23T05:54:53.381Z,100267.58
2018-11-23T06:00:14.936Z,100266.38
2018-11-23T06:05:33.448Z,100266.84
2018-11-23T06:10:51.974Z,100267.90
2018-11-23T06:16:10.520Z,100265.22
2018-11-23T06:21:29.068Z,100268.00
2018-11-23T06:26:47.688Z,100254.49
2018-11-23T06:32:16.241Z,100258.16
2018-11-23T06:37:34.764Z,100257.68
2018-11-23T06:42:53.269Z,100256.67
2018-11-23T06:48:12.147Z,100258.59
2018-11-23T06:53:30.665Z,100264.38
2018-11-23T06:58:49.180Z,100270.08
2018-11-23T07:04:07.665Z,100261.02
2018-11-23T07:09:26.156Z,100258.66
2018-11-23T07:14:44.679Z,100274.42
2018-11-23T07:20:03.295Z,100266.09
2018-11-23T07:25:21.814Z,100274.59
2018-11-23T07:30:40.348Z,100276.73
2018-11-23T07:35:59.288Z,100280.02
2018-11-23T07:41:29.072Z,100281.86
2018-11-23T07:46:47.652Z,100280.45
2018-11-23T07:52:06.288Z,100280.93
2018-11-23T07:57:24.748Z,100270.52
2018-11-23T08:02:43.828Z,100282.65
2018-11-23T08:08:02.332Z,100260.58
2018-11-23T08:13:20.999Z,100270.86
2018-11-23T08:18:39.546Z,100273.80
2018-11-23T08:23:58.083Z,100266.92
2018-11-23T08:29:16.628Z,100253.30
2018-11-23T08:34:35.133Z,100252.45
2018-11-23T08:39:53.642Z,100257.37
2018-11-23T08:45:13.912Z,100254.20
2018-11-23T08:50:32.489Z,100263.04
2018-11-23T08:55:51.015Z,100253.83
2018-11-23T09:01:09.544Z,100264.67
2018-11-23T09:06:28.072Z,100267.77
2018-11-23T09:11:46.624Z,100261.39
2018-11-23T09:17:05.337Z,100267.50
2018-11-23T09:22:23.869Z,100265.84
2018-11-23T09:27:42.496Z,100256.81
2018-11-23T09:33:01.166Z,100253.23
2018-11-23T09:38:19.688Z,100254.61
2018-11-23T09:43:38.283Z,100253.84
2018-11-23T09:48:56.864Z,100255.76
2018-11-23T09:54:15.665Z,100247.84
2018-11-23T09:59:34.147Z,100244.37
2018-11-23T10:04:53.624Z,100245.00
2018-11-23T10:10:13.103Z,100238.22
2018-11-23T10:15:32.499Z,100230.94
2018-11-23T10:20:51.003Z,100227.78
2018-11-23T10:26:09.515Z,100220.64
2018-11-23T10:31:28.214Z,100219.71
2018-11-23T10:36:48.023Z,100212.50
2018-11-23T10:42:07.275Z,100204.63
2018-11-23T10:47:25.730Z,100197.58
2018-11-23T10:52:44.352Z,100197.59
2018-11-23T10:58:02.920Z,100188.70
2018-11-23T11:03:37.649Z,100180.48
2018-11-23T11:08:56.182Z,100176.96
2018-11-23T11:14:14.790Z,100177.02
2018-11-23T11:19:33.266Z,100170.51
2018-11-23T11:24:51.733Z,100166.67
2018-11-23T11:30:12.364Z,100153.25
2018-11-23T11:35:30.909Z,100146.28
2018-11-23T11:40:49.426Z,100132.09
2018-11-23T11:46:08.404Z,100122.95
2018-11-23T11:51:27.055Z,100120.17
2018-11-23T11:56:45.571Z,100118.55
2018-11-23T12:02:06.683Z,100112.94
2018-11-23T12:07:22.712Z,100106.48
2018-11-23T12:12:41.265Z,100104.94
2018-11-23T12:17:59.795Z,100089.55
2018-11-23T12:23:18.277Z,100087.57
2018-11-23T12:28:36.776Z,100083.68
2018-11-23T12:33:55.278Z,100080.31
2018-11-23T12:39:13.792Z,100075.67
2018-11-23T12:44:32.333Z,100069.30
2018-11-23T12:49:50.833Z,100072.97
2018-11-23T12:55:10.036Z,100066.40
2018-11-23T13:00:29.460Z,100064.11
2018-11-23T13:05:48.033Z,100057.92
2018-11-23T13:11:06.555Z,100061.31
2018-11-23T13:16:25.466Z,100055.94
2018-11-23T13:21:44.036Z,100052.48
2018-11-23T13:27:02.574Z,100040.05
2018-11-23T13:32:21.100Z,100037.11
2018-11-23T13:37:39.598Z,100026.45
2018-11-23T13:42:59.053Z,100015.27
2018-11-23T13:48:20.091Z,100022.31
2018-11-23T13:53:36.052Z,100014.76
2018-11-23T13:58:54.603Z,100013.37
2018-11-23T14:04:13.120Z,100013.88
2018-11-23T14:09:31.637Z,100009.78
2018-11-23T14:14:50.088Z,100005.95
2018-11-23T14:20:10.653Z,100004.26
2018-11-23T14:25:30.805Z,99993.95
2018-11-23T14:30:49.420Z,99987.59
2018-11-23T14:36:07.947Z,99979.70
2018-11-23T14:41:26.739Z,99973.67
2018-11-23T14:46:45.436Z,99973.11
2018-11-23T14:52:03.961Z,99970.83
2018-11-23T14:57:22.478Z,99970.28
2018-11-23T15:02:41.199Z,99960.73
2018-11-23T15:07:59.754Z,99961.31
2018-11-23T15:13:18.315Z,99966.38
2018-11-23T15:18:36.811Z,99973.62
2018-11-23T15:23:55.389Z,99973.76
2018-11-23T15:29:14.292Z,99975.38
2018-11-23T15:34:32.781Z,99975.83
2018-11-23T15:39:51.244Z,99974.80
2018-11-23T15:45:13.082Z,99968.44
2018-11-23T15:50:33.806Z,99978.51
2018-11-23T15:55:52.449Z,99960.61
2018-11-23T16:01:11.016Z,99966.53
2018-11-23T16:06:29.532Z,99966.44
2018-11-23T16:11:48.070Z,99959.84
2018-11-23T16:17:06.586Z,99959.95
2018-11-23T16:22:25.060Z,99959.86
2018-11-23T16:27:44.659Z,99960.88
2018-11-23T16:33:04.508Z,99961.70
2018-11-23T16:38:24.085Z,99960.91
2018-11-23T16:43:42.581Z,99957.28
2018-11-23T16:49:01.062Z,99950.05
2018-11-23T16:54:19.624Z,99946.43
2018-11-23T16:59:38.225Z,99944.95
2018-11-23T17:04:56.760Z,99950.37
2018-11-23T17:10:16.468Z,99941.80
2018-11-23T17:15:35.063Z,99945.38
2018-11-23T17:20:53.822Z,99936.49
2018-11-23T17:26:12.323Z,99939.73
2018-11-23T17:31:30.868Z,99940.84
2018-11-23T17:36:49.392Z,99941.47
2018-11-23T17:42:07.918Z,99940.95
2018-11-23T17:47:26.417Z,99935.48
2018-11-23T17:52:45.495Z,99936.30
2018-11-23T17:58:04.127Z,99937.39
2018-11-23T18:08:48.680Z,99928.59
2018-11-23T18:14:07.512Z,99921.14
2018-11-23T18:19:26.512Z,99913.11
2018-11-23T18:24:45.487Z,99908.17
2018-11-23T18:30:05.078Z,99902.02
2018-11-23T18:35:24.110Z,99881.66
2018-11-23T18:40:42.718Z,99871.52
2018-11-23T18:46:01.247Z,99871.63
2018-11-23T18:51:19.768Z,99868.27
2018-11-23T18:56:38.379Z,99858.57
2018-11-23T19:01:57.019Z,99855.88
2018-11-23T19:07:15.578Z,99843.55
2018-11-23T19:12:34.192Z,99835.65
2018-11-23T19:17:52.793Z,99831.64
2018-11-23T19:23:11.548Z,99820.48
2018-11-23T19:28:30.366Z,99823.41
2018-11-23T19:33:48.971Z,99824.98
2018-11-23T19:39:08.601Z,99817.44
2018-11-23T19:44:27.154Z,99818.05
2018-11-23T19:49:45.685Z,99813.08
2018-11-23T19:55:05.226Z,99813.22
2018-11-23T20:00:24.945Z,99807.41
2018-11-23T20:05:43.561Z,99810.11
2018-11-23T20:11:02.161Z,99803.44
2018-11-23T20:16:20.715Z,99797.47
2018-11-23T20:21:39.374Z,99792.62
2018-11-23T20:26:58.216Z,99796.02
2018-11-23T20:32:16.840Z,99791.91
2018-11-23T20:37:36.097Z,99789.38
2018-11-23T20:42:54.839Z,99787.97
2018-11-23T20:48:13.523Z,99775.37
2018-11-23T20:53:32.356Z,99774.24
2018-11-23T20:58:51.072Z,99766.77
2018-11-23T21:04:09.632Z,99768.08
2018-11-23T21:09:31.215Z,99751.77
2018-11-23T21:14:47.095Z,99743.26
2018-11-23T21:20:06.789Z,99739.77
2018-11-23T21:25:25.354Z,99748.69
2018-11-23T21:30:43.869Z,99745.06
2018-11-23T21:36:02.368Z,99736.73
2018-11-23T21:41:20.916Z,99733.34
2018-11-23T21:46:39.629Z,99727.37
2018-11-23T21:51:58.136Z,99728.27
2018-11-23T21:57:16.684Z,99719.36
2018-11-23T22:02:35.241Z,99715.80
2018-11-23T22:07:53.761Z,99713.08
2018-11-23T22:13:12.257Z,99708.03
2018-11-23T22:18:30.751Z,99703.45
2018-11-23T22:23:49.240Z,99691.22
2018-11-23T22:29:07.721Z,99687.55
2018-11-23T22:34:26.328Z,99692.77
2018-11-23T22:39:44.877Z,99685.70
2018-11-23T22:45:03.428Z,99681.92
2018-11-23T22:50:23.761Z,99681.39
2018-11-23T22:55:42.287Z,99671.17
2018-11-23T23:01:02.993Z,99670.16
2018-11-23T23:06:21.479Z,99665.48
2018-11-23T23:11:39.975Z,99651.65
2018-11-23T23:16:58.615Z,99651.65
2018-11-23T23:22:17.104Z,99645.70
2018-11-23T23:27:35.634Z,99640.03
2018-11-23T23:32:54.133Z,99637.11
2018-11-23T23:38:12.647Z,99624.91
2018-11-23T23:43:31.169Z,99624.61
2018-11-23T23:48:49.690Z,99631.61
2018-11-23T23:54:08.192Z,99625.09
2018-11-23T23:59:26.667Z,99616.01
